Huvudsida
METAR-TAF:

METAR-TAF

Flygplatser :

Kajana flygplats

Kajana, Finland

latitud: 64-17N, longitud: 027-41E, höjd: 143 m

Aktuellt väderrapport

Denna rapport gjordes för 16 minuter sedan, klockan 17:20 UTC
Vind 6 kt från väst
Temperatur -13°C
Fuktighet 85%
Tryck 990 hPa
Sikt: 6000 m
Brutna moln på en höjd av 1000 ft
Mulet på en höjd av 1500 ft
lätt snö

METAR: EFKI 161720Z 26006KT 6000 -SN BKN010 OVC015 M13/M15 Q0990

Tid: 19:36 (17:36 UTC)

Väderprognos

Denna rapport gjordes för 2 timmar och 37 minuter sedan, klockan 14:59 UTC
Prognos gäller från 16 kl. 15 UTC till 16 kl. 22 UTC
Vind 6 kt från väst
Sikt 10 km eller mer
Brutna moln på en höjd av 500 ft
Temporärt
från 16 kl. 15 UTC till 16 kl. 22 UTC
Sikt: 4000 m
Mulet på en höjd av 300 ft
lätt snö

TAF: EFKI 161459Z 1615/1622 28006KT 9999 BKN005 TEMPO 1615/1622 4000 -SN OVC003

Aktuella väderrapporter och prognoser från 4000 flygplatser (METAR- och TAF-rapporter).

De tillgängliga stationerna syns som gula och röda prickar på kartan.

För musen över prickarna för att se namnen på stationerna.

Klicka sedan för att få väderrapporter och prognoser.

För att ändra kartan: Klicka på de gröna knapparna med ett svart kors på för att zooma in; den gröna knappen med ett streck på för att zooma ut; eller på de gröna pilarna för angränsande kartor.


METAR-TAF: